Time;durP1;ratioP1;P1;durP2;ratioP2;P2;SDS_P1;SDS_P2;PMS_P1;PMS_P2;Temp;Humidity;BMP_temperature;BMP_pressure;BME280_temperature;BME280_humidity;BME280_pressure;Samples;Min_cycle;Max_cycle;Signal;HPM_P1;HPM_P2
2021/08/23 00:00:16;;;;;;;20.15;10.88;;;19.00;88.50;;;;;;5040813;28;20169;-91
2021/08/23 00:02:43;;;;;;;20.05;11.20;;;19.00;88.60;;;;;;5043413;28;20213;-90
2021/08/23 00:05:10;;;;;;;23.13;12.55;;;18.90;88.80;;;;;;5056563;28;20251;-90
2021/08/23 00:07:36;;;;;;;18.02;13.88;;;18.90;89.00;;;;;;5056826;28;20189;-90
2021/08/23 00:10:03;;;;;;;23.50;13.80;;;18.80;89.40;;;;;;5055766;28;20553;-90
2021/08/23 00:12:29;;;;;;;21.77;13.05;;;18.80;89.60;;;;;;5055101;28;20294;-90
2021/08/23 00:14:55;;;;;;;25.80;13.68;;;18.80;89.70;;;;;;5056649;28;20197;-91
2021/08/23 00:17:21;;;;;;;22.33;13.03;;;18.70;89.40;;;;;;5056154;28;20173;-91
2021/08/23 00:19:47;;;;;;;20.73;12.83;;;18.70;89.80;;;;;;5072793;28;20173;-92
2021/08/23 00:22:28;;;;;;;20.20;13.50;;;18.80;89.80;;;;;;5078254;28;20200;-90
2021/08/23 00:24:54;;;;;;;16.48;11.23;;;18.80;89.30;;;;;;5078773;28;20162;-89
2021/08/23 00:27:20;;;;;;;20.07;11.97;;;18.90;89.40;;;;;;5078706;28;20192;-89
2021/08/23 00:29:47;;;;;;;16.60;11.20;;;18.90;89.30;;;;;;5078653;28;20415;-91
2021/08/23 00:32:13;;;;;;;21.17;11.15;;;18.90;89.20;;;;;;5078237;28;20208;-90
2021/08/23 00:34:41;;;;;;;17.27;12.18;;;18.90;88.40;;;;;;5077274;28;20177;-89
2021/08/23 00:37:07;;;;;;;19.83;11.27;;;18.90;88.10;;;;;;5078403;28;20200;-90
2021/08/23 00:39:34;;;;;;;26.20;11.03;;;18.90;87.50;;;;;;5078327;28;20236;-88
2021/08/23 00:42:01;;;;;;;18.35;11.73;;;18.90;87.30;;;;;;5077982;28;20435;-91
2021/08/23 00:44:27;;;;;;;20.88;10.20;;;18.90;87.10;;;;;;5078101;28;20166;-90
2021/08/23 00:46:52;;;;;;;15.43;9.33;;;18.90;86.70;;;;;;5078095;28;20185;-90
2021/08/23 00:49:18;;;;;;;11.53;8.87;;;18.90;86.70;;;;;;5078194;28;20178;-91
2021/08/23 00:51:44;;;;;;;13.83;10.20;;;19.00;86.60;;;;;;5078536;28;20341;-93
2021/08/23 00:54:10;;;;;;;21.25;10.52;;;18.90;86.50;;;;;;5069423;28;20484;-91
2021/08/23 00:56:38;;;;;;;19.67;10.50;;;18.90;86.20;;;;;;5055822;28;20188;-91
2021/08/23 00:59:08;;;;;;;14.77;11.02;;;19.00;85.80;;;;;;5054908;28;20284;-92
2021/08/23 01:01:47;;;;;;;20.38;10.63;;;19.10;86.30;;;;;;5059229;28;20169;-92
2021/08/23 01:04:21;;;;;;;16.42;10.50;;;19.10;85.90;;;;;;5056498;28;20192;-92
2021/08/23 01:06:48;;;;;;;19.60;10.35;;;19.00;85.40;;;;;;5061675;28;20192;-91
2021/08/23 01:09:16;;;;;;;15.13;9.15;;;19.00;85.70;;;;;;5077241;28;20173;-92
2021/08/23 01:11:51;;;;;;;13.65;7.63;;;19.00;85.60;;;;;;5070299;28;20217;-92
2021/08/23 01:14:19;;;;;;;12.98;7.55;;;19.00;85.10;;;;;;5056588;28;20207;-92
2021/08/23 01:16:45;;;;;;;9.02;6.97;;;19.00;85.10;;;;;;5054664;28;20180;-91
2021/08/23 01:19:12;;;;;;;11.98;6.93;;;19.00;84.80;;;;;;5055200;28;20220;-91
2021/08/23 01:21:38;;;;;;;19.77;7.50;;;19.10;84.80;;;;;;5054929;28;20181;-92
2021/08/23 01:25:15;;;;;;;15.55;8.32;;;19.00;85.20;;;;;;5054690;28;20553;-94
2021/08/23 01:27:56;;;;;;;13.93;7.95;;;19.00;85.30;;;;;;5019666;28;20640;-90
2021/08/23 01:30:22;;;;;;;10.27;7.40;;;18.90;85.20;;;;;;5054357;28;20618;-91
2021/08/23 01:32:48;;;;;;;12.73;7.40;;;19.00;85.10;;;;;;5076528;28;20211;-91
2021/08/23 01:35:14;;;;;;;11.48;8.38;;;19.10;85.10;;;;;;5077285;28;20423;-91
2021/08/23 01:37:40;;;;;;;10.23;7.78;;;19.10;85.20;;;;;;5064838;28;20189;-91
2021/08/23 01:40:07;;;;;;;15.57;7.83;;;19.00;84.90;;;;;;5054235;28;20671;-90
2021/08/23 01:42:33;;;;;;;15.05;8.43;;;19.10;85.10;;;;;;5052895;28;20201;-91
2021/08/23 01:44:59;;;;;;;12.85;7.55;;;19.30;84.90;;;;;;5054307;28;20185;-90
2021/08/23 01:47:25;;;;;;;15.60;8.23;;;19.20;85.00;;;;;;5053616;28;20183;-92
2021/08/23 01:49:51;;;;;;;9.70;7.90;;;19.20;85.00;;;;;;5053241;28;20180;-91
2021/08/23 01:52:16;;;;;;;23.30;7.90;;;19.10;85.20;;;;;;5053293;28;20470;-92
2021/08/23 01:54:43;;;;;;;13.30;7.90;;;19.00;85.30;;;;;;5053675;28;20176;-91
2021/08/23 01:57:15;;;;;;;15.73;8.57;;;19.10;85.90;;;;;;5053744;28;20211;-91
2021/08/23 01:59:41;;;;;;;14.68;9.35;;;19.10;86.00;;;;;;5054534;28;20177;-91
2021/08/23 02:02:07;;;;;;;18.50;10.27;;;19.00;86.40;;;;;;5053499;28;20200;-90
2021/08/23 02:04:32;;;;;;;17.50;10.70;;;19.00;86.60;;;;;;5053630;28;20473;-90
2021/08/23 02:06:58;;;;;;;16.50;10.30;;;19.00;86.80;;;;;;5052667;28;20177;-91
2021/08/23 02:09:24;;;;;;;21.10;10.50;;;18.90;87.10;;;;;;5056152;28;20188;-91
2021/08/23 02:11:50;;;;;;;17.48;11.77;;;18.80;87.00;;;;;;5054167;28;20201;-90
2021/08/23 02:14:16;;;;;;;16.03;11.73;;;18.80;87.10;;;;;;5054678;28;20662;-90
2021/08/23 02:16:42;;;;;;;17.30;10.60;;;18.90;87.30;;;;;;5056301;28;20422;-91
2021/08/23 02:19:09;;;;;;;19.93;12.33;;;18.90;87.20;;;;;;5054413;28;20742;-90
2021/08/23 02:21:52;;;;;;;18.90;12.35;;;18.80;87.20;;;;;;5055629;28;20185;-91
2021/08/23 02:24:19;;;;;;;19.33;13.05;;;18.80;87.10;;;;;;5054728;28;20215;-91
2021/08/23 02:26:45;;;;;;;16.00;13.10;;;18.90;87.00;;;;;;5053246;28;20259;-92
2021/08/23 02:29:11;;;;;;;16.38;12.80;;;18.90;87.10;;;;;;5054499;28;20181;-92
2021/08/23 02:31:39;;;;;;;22.02;15.18;;;18.80;87.30;;;;;;5053003;28;20196;-92
2021/08/23 02:34:05;;;;;;;16.60;14.48;;;18.70;87.50;;;;;;5053544;28;20228;-91
2021/08/23 02:36:34;;;;;;;18.40;14.63;;;18.70;87.70;;;;;;5053700;28;20177;-92
2021/08/23 02:39:01;;;;;;;23.75;14.90;;;18.80;88.10;;;;;;5053653;28;20788;-93
2021/08/23 02:41:26;;;;;;;19.88;15.80;;;18.70;87.80;;;;;;5053665;28;20181;-92
2021/08/23 02:43:52;;;;;;;19.03;15.23;;;18.70;87.90;;;;;;5055380;28;20290;-91
2021/08/23 02:46:18;;;;;;;26.23;15.33;;;18.80;87.80;;;;;;5054711;28;20191;-91
2021/08/23 02:48:45;;;;;;;23.00;15.80;;;18.90;87.70;;;;;;5055686;28;20188;-90
2021/08/23 02:51:12;;;;;;;19.30;15.82;;;18.90;87.40;;;;;;5055489;28;20201;-91
2021/08/23 02:53:38;;;;;;;20.52;15.82;;;18.90;87.60;;;;;;5056801;28;20205;-91
2021/08/23 02:56:04;;;;;;;21.30;16.07;;;18.80;87.70;;;;;;5057045;28;20169;-91
2021/08/23 02:58:30;;;;;;;23.10;16.58;;;18.90;88.00;;;;;;5063468;28;20186;-91
2021/08/23 03:00:57;;;;;;;22.47;17.60;;;18.90;87.70;;;;;;5063760;28;20188;-91
2021/08/23 03:03:22;;;;;;;24.95;17.85;;;18.80;87.70;;;;;;5066293;28;20235;-90
2021/08/23 03:05:48;;;;;;;18.30;14.77;;;18.80;87.80;;;;;;5072613;28;20224;-90
2021/08/23 03:08:14;;;;;;;23.63;17.80;;;18.80;87.90;;;;;;5069188;28;20268;-91
2021/08/23 03:10:39;;;;;;;23.30;16.40;;;18.80;88.10;;;;;;5075988;28;20216;-91
2021/08/23 03:13:06;;;;;;;27.60;18.90;;;18.70;88.20;;;;;;5075949;28;20241;-90
2021/08/23 03:15:31;;;;;;;28.88;18.60;;;18.80;88.10;;;;;;5077114;28;20173;-91
2021/08/23 03:17:57;;;;;;;28.13;18.10;;;18.80;87.90;;;;;;5071754;28;20616;-91
2021/08/23 03:20:24;;;;;;;25.77;18.57;;;18.80;88.60;;;;;;5068890;28;20403;-91
2021/08/23 03:22:51;;;;;;;22.63;16.55;;;18.90;87.80;;;;;;5068369;28;20225;-91
2021/08/23 03:25:17;;;;;;;24.33;17.80;;;18.90;87.50;;;;;;5072862;28;20196;-90
2021/08/23 03:27:43;;;;;;;26.27;19.00;;;18.90;87.50;;;;;;5073186;28;20177;-90
2021/08/23 03:30:19;;;;;;;30.10;18.00;;;19.00;87.40;;;;;;5073874;28;20527;-92
2021/08/23 03:35:19;;;;;;;27.30;17.95;;;19.00;87.00;;;;;;5130054;22;20239;-90
2021/08/23 03:37:45;;;;;;;25.97;18.20;;;19.00;87.20;;;;;;5092352;28;20173;-91
2021/08/23 03:40:11;;;;;;;26.50;18.67;;;19.10;87.20;;;;;;5093880;28;20211;-90
2021/08/23 03:47:43;;;;;;;26.63;17.98;;;19.10;86.40;;;;;;5056679;28;20210;-91
2021/08/23 03:50:10;;;;;;;29.75;19.83;;;19.00;86.60;;;;;;5040200;28;20197;-90
2021/08/23 03:52:35;;;;;;;23.50;17.70;;;19.00;86.60;;;;;;5040582;28;20209;-91
2021/08/23 03:55:02;;;;;;;25.20;17.00;;;19.00;86.80;;;;;;5040364;28;20182;-90
2021/08/23 03:57:28;;;;;;;30.13;18.85;;;18.90;87.00;;;;;;5041360;28;20189;-90
2021/08/23 03:59:54;;;;;;;28.33;19.90;;;18.90;87.00;;;;;;5041510;28;20174;-90
2021/08/23 04:02:20;;;;;;;29.33;20.70;;;18.90;87.10;;;;;;5040687;28;20541;-89
2021/08/23 04:04:45;;;;;;;26.90;19.47;;;19.00;86.80;;;;;;5040839;28;20185;-90
2021/08/23 04:07:11;;;;;;;24.37;18.03;;;19.00;86.90;;;;;;5040926;28;20185;-89
2021/08/23 04:09:37;;;;;;;25.17;18.47;;;18.90;87.10;;;;;;5040356;28;20205;-89
2021/08/23 04:12:03;;;;;;;27.40;17.50;;;18.90;87.00;;;;;;5040332;28;20249;-89
2021/08/23 04:14:29;;;;;;;23.83;18.83;;;19.00;86.70;;;;;;5040454;28;20212;-91
2021/08/23 04:16:54;;;;;;;25.27;17.60;;;19.00;86.60;;;;;;5023034;28;20429;-90
2021/08/23 04:19:20;;;;;;;31.53;20.20;;;19.10;86.50;;;;;;5018441;28;20724;-90
2021/08/23 04:21:46;;;;;;;26.93;19.30;;;19.10;86.20;;;;;;5017567;28;20185;-90
2021/08/23 04:24:11;;;;;;;28.10;19.13;;;19.10;85.90;;;;;;5018161;28;20174;-90
2021/08/23 04:26:37;;;;;;;25.93;18.70;;;19.10;85.80;;;;;;5018084;28;20182;-90
2021/08/23 04:29:03;;;;;;;29.60;20.00;;;19.00;85.50;;;;;;5017862;28;20526;-90
2021/08/23 04:31:31;;;;;;;26.10;18.67;;;19.10;85.90;;;;;;5017780;28;20210;-91
2021/08/23 04:33:57;;;;;;;25.58;17.67;;;19.10;85.90;;;;;;5018136;28;20684;-90
2021/08/23 04:36:23;;;;;;;26.20;17.25;;;19.10;86.10;;;;;;5019742;28;20180;-91
2021/08/23 04:38:49;;;;;;;24.52;19.08;;;19.10;86.60;;;;;;5018821;28;20177;-91
2021/08/23 04:41:15;;;;;;;25.40;18.23;;;19.20;85.60;;;;;;5035003;28;20221;-91
2021/08/23 04:43:40;;;;;;;24.77;17.77;;;19.20;85.30;;;;;;5037446;28;20460;-89
2021/08/23 04:46:06;;;;;;;28.23;17.97;;;19.10;85.40;;;;;;5019964;28;20212;-90
2021/08/23 04:48:32;;;;;;;26.83;19.37;;;19.00;85.50;;;;;;5018249;28;20182;-90
2021/08/23 04:50:58;;;;;;;23.40;17.80;;;19.00;85.90;;;;;;5017522;28;20216;-90
2021/08/23 04:53:23;;;;;;;23.37;17.93;;;19.10;85.80;;;;;;5018209;28;20194;-90
2021/08/23 04:55:49;;;;;;;25.10;18.00;;;19.10;85.60;;;;;;5018080;28;20184;-90
2021/08/23 04:58:15;;;;;;;26.40;18.53;;;19.10;85.70;;;;;;5018271;28;20912;-91
2021/08/23 05:00:41;;;;;;;32.90;20.23;;;19.00;85.60;;;;;;5019689;28;20493;-90
2021/08/23 05:03:09;;;;;;;26.47;19.57;;;19.10;85.60;;;;;;5018814;28;20202;-89
2021/08/23 05:09:10;;;;;;;33.10;20.02;;;19.00;85.00;;;;;;5057210;28;20192;-89
2021/08/23 05:11:36;;;;;;;27.00;18.63;;;19.00;85.50;;;;;;5040446;28;20666;-89
2021/08/23 05:14:02;;;;;;;29.10;18.90;;;19.00;85.50;;;;;;5017615;28;20196;-89
2021/08/23 05:16:28;;;;;;;35.75;20.95;;;18.90;85.80;;;;;;5017528;28;20954;-90
2021/08/23 05:18:54;;;;;;;27.90;19.53;;;18.90;86.00;;;;;;5017801;28;20189;-90
2021/08/23 05:21:20;;;;;;;25.07;17.60;;;19.00;85.70;;;;;;5017193;28;20228;-91
2021/08/23 05:23:45;;;;;;;30.67;18.47;;;19.00;85.80;;;;;;5018135;28;20212;-90
2021/08/23 05:26:11;;;;;;;27.00;19.20;;;19.00;85.70;;;;;;5019293;28;20498;-91
2021/08/23 05:28:40;;;;;;;30.85;19.08;;;19.00;85.30;;;;;;5018999;28;20185;-91
2021/08/23 05:31:06;;;;;;;25.80;17.40;;;19.00;85.40;;;;;;5020531;28;20334;-91
2021/08/23 05:33:38;;;;;;;26.13;17.20;;;18.80;85.70;;;;;;5019208;28;20221;-91
2021/08/23 05:36:18;;;;;;;26.05;17.27;;;18.70;85.70;;;;;;5019062;28;20507;-91
2021/08/23 05:38:44;;;;;;;30.75;17.92;;;18.70;86.20;;;;;;5021782;28;20268;-91
2021/08/23 05:41:10;;;;;;;27.77;19.13;;;18.60;86.40;;;;;;5018929;28;20666;-90
2021/08/23 05:43:36;;;;;;;25.73;17.57;;;18.60;86.70;;;;;;5019482;28;20440;-90
2021/08/23 05:46:01;;;;;;;26.53;17.63;;;18.60;86.50;;;;;;5005492;28;20220;-89
2021/08/23 05:48:30;;;;;;;29.17;19.00;;;18.60;86.40;;;;;;4999464;28;20186;-89
2021/08/23 05:50:55;;;;;;;28.17;18.38;;;18.60;86.50;;;;;;5000904;28;20602;-89
2021/08/23 05:53:21;;;;;;;23.83;18.20;;;18.60;86.40;;;;;;5013585;28;20204;-90
2021/08/23 05:55:47;;;;;;;29.60;19.60;;;18.50;86.60;;;;;;5036100;28;20174;-91
2021/08/23 05:58:13;;;;;;;27.60;16.83;;;18.50;86.70;;;;;;4998536;28;20188;-92
2021/08/23 06:00:39;;;;;;;26.58;18.70;;;18.50;86.80;;;;;;4998223;28;20473;-92
2021/08/23 06:03:05;;;;;;;28.37;18.93;;;18.40;86.90;;;;;;4999563;28;20218;-91
2021/08/23 06:05:31;;;;;;;27.57;19.00;;;18.40;87.10;;;;;;5015090;28;20213;-91
2021/08/23 06:07:57;;;;;;;32.00;18.47;;;18.40;86.90;;;;;;5022160;28;20269;-90
2021/08/23 06:10:23;;;;;;;29.23;16.98;;;18.50;86.90;;;;;;5014326;28;20158;-91
2021/08/23 06:12:50;;;;;;;29.07;19.00;;;18.50;87.00;;;;;;5039850;28;20276;-94
2021/08/23 06:15:16;;;;;;;31.20;18.65;;;18.40;87.30;;;;;;5040170;28;20205;-91
2021/08/23 06:17:42;;;;;;;28.50;18.27;;;18.40;87.70;;;;;;5040148;28;20166;-92
2021/08/23 06:20:08;;;;;;;35.43;20.17;;;18.40;87.80;;;;;;5040343;28;20185;-92
2021/08/23 06:22:36;;;;;;;28.80;18.20;;;18.30;87.70;;;;;;5040169;28;20482;-92
2021/08/23 06:25:06;;;;;;;35.55;21.15;;;18.10;88.30;;;;;;5057234;28;20169;-89
2021/08/23 06:27:33;;;;;;;36.47;20.48;;;18.20;88.60;;;;;;5039977;28;20158;-91
2021/08/23 06:30:28;;;;;;;35.42;19.95;;;18.20;88.70;;;;;;5023314;28;20162;-93
2021/08/23 06:32:54;;;;;;;32.83;20.35;;;18.20;88.50;;;;;;4941733;28;20206;-93
2021/08/23 06:36:55;;;;;;;;;;;;;;;;;;;;;
2021/08/23 06:38:53;;;;;;;34.25;20.20;;;18.40;87.60;;;;;;4866522;28;20210;-93
2021/08/23 06:41:21;;;;;;;32.70;21.42;;;18.50;86.60;;;;;;5028540;28;20249;-92
2021/08/23 06:43:50;;;;;;;34.55;19.05;;;18.30;86.30;;;;;;5023639;28;20186;-92
2021/08/23 06:46:31;;;;;;;32.50;19.88;;;18.40;86.30;;;;;;5022691;28;20230;-94
2021/08/23 06:48:57;;;;;;;28.85;19.35;;;18.40;86.30;;;;;;5009014;28;20273;-89
2021/08/23 06:51:24;;;;;;;32.37;19.70;;;18.30;85.90;;;;;;5002247;28;20571;-88
2021/08/23 06:53:50;;;;;;;28.65;18.88;;;18.40;86.10;;;;;;5004999;28;20205;-88
2021/08/23 06:56:17;;;;;;;27.73;18.80;;;18.50;85.80;;;;;;5000352;28;20213;-88
2021/08/23 06:58:43;;;;;;;30.30;19.42;;;18.50;85.40;;;;;;5001342;28;20175;-88
2021/08/23 07:01:09;;;;;;;30.83;18.80;;;18.50;85.20;;;;;;5019570;28;20214;-88
2021/08/23 07:03:36;;;;;;;26.73;16.83;;;18.60;85.10;;;;;;5000868;28;20438;-90
2021/08/23 07:06:03;;;;;;;27.13;17.38;;;18.60;84.90;;;;;;5000938;28;20509;-91
2021/08/23 07:08:29;;;;;;;30.95;19.58;;;18.50;84.60;;;;;;5001993;28;20178;-90
2021/08/23 07:10:57;;;;;;;27.58;18.05;;;18.60;85.00;;;;;;5016924;28;20198;-90
2021/08/23 07:13:23;;;;;;;25.65;18.15;;;18.60;84.40;;;;;;5004479;28;20210;-91
2021/08/23 07:15:49;;;;;;;21.93;16.07;;;18.60;84.70;;;;;;5005718;28;20183;-90
2021/08/23 07:18:15;;;;;;;30.50;17.60;;;18.70;84.60;;;;;;5003207;28;20413;-90
2021/08/23 07:20:42;;;;;;;20.87;16.10;;;18.70;84.10;;;;;;5003639;28;20178;-90
2021/08/23 07:23:09;;;;;;;20.05;14.50;;;18.70;84.00;;;;;;5005331;28;20433;-89
2021/08/23 07:25:35;;;;;;;23.40;15.75;;;18.90;83.90;;;;;;5004473;28;20208;-93
2021/08/23 07:28:01;;;;;;;19.17;15.00;;;19.00;83.40;;;;;;5005218;28;20269;-90
2021/08/23 07:30:28;;;;;;;21.38;14.75;;;19.00;83.10;;;;;;5002806;28;20422;-90
2021/08/23 07:32:53;;;;;;;22.35;14.65;;;19.10;83.20;;;;;;5014148;28;20208;-90
2021/08/23 07:35:19;;;;;;;22.10;14.17;;;19.00;82.80;;;;;;5020257;28;20202;-90
2021/08/23 07:37:51;;;;;;;22.63;15.10;;;19.20;82.50;;;;;;5010267;28;20546;-92
2021/08/23 07:40:17;;;;;;;21.08;15.18;;;19.20;82.40;;;;;;5006025;28;20645;-92
2021/08/23 07:42:51;;;;;;;21.67;15.07;;;19.00;82.20;;;;;;5010320;28;20237;-93
2021/08/23 07:45:20;;;;;;;22.80;14.35;;;19.00;82.20;;;;;;5008275;28;20433;-91
2021/08/23 07:47:49;;;;;;;22.48;12.63;;;19.10;82.00;;;;;;5008145;28;20292;-93
2021/08/23 07:50:15;;;;;;;15.57;11.73;;;19.10;81.70;;;;;;5006808;28;20698;-94
2021/08/23 07:52:41;;;;;;;32.53;12.68;;;19.10;81.40;;;;;;5009616;28;20225;-92
2021/08/23 07:55:09;;;;;;;15.40;10.20;;;19.20;81.50;;;;;;5012193;28;20170;-93
2021/08/23 07:57:47;;;;;;;16.40;12.00;;;19.20;80.70;;;;;;5017511;28;20409;-93
2021/08/23 08:00:15;;;;;;;15.27;10.90;;;19.30;80.30;;;;;;5015018;28;20656;-93
2021/08/23 08:02:43;;;;;;;11.60;9.32;;;19.50;80.20;;;;;;5009126;28;20225;-93
2021/08/23 08:05:10;;;;;;;13.77;9.20;;;19.70;79.70;;;;;;5010925;28;20273;-94
2021/08/23 08:07:37;;;;;;;11.52;8.75;;;19.80;79.00;;;;;;5014542;28;20178;-92
2021/08/23 08:10:05;;;;;;;11.45;8.40;;;19.80;78.30;;;;;;5020815;28;20625;-93
2021/08/23 08:12:34;;;;;;;10.80;8.10;;;20.10;78.00;;;;;;5004136;28;20214;-94
2021/08/23 08:14:59;;;;;;;8.48;7.63;;;20.30;77.50;;;;;;5015347;28;20177;-93
2021/08/23 08:17:26;;;;;;;8.70;7.00;;;20.40;76.20;;;;;;5011822;28;20614;-94
2021/08/23 08:19:52;;;;;;;12.48;6.55;;;20.40;75.20;;;;;;5016136;28;20182;-93
2021/08/23 08:22:18;;;;;;;8.70;6.45;;;20.60;75.00;;;;;;5024332;28;20186;-92
2021/08/23 08:24:48;;;;;;;10.20;7.13;;;20.80;74.40;;;;;;5025020;28;20205;-92
2021/08/23 08:27:14;;;;;;;14.80;6.17;;;21.00;73.50;;;;;;5027968;28;20440;-93
2021/08/23 08:29:40;;;;;;;6.87;6.27;;;21.00;72.10;;;;;;5018445;28;20425;-93
2021/08/23 08:32:07;;;;;;;13.50;7.00;;;21.00;72.00;;;;;;5018520;28;20468;-93
2021/08/23 08:34:33;;;;;;;9.77;6.53;;;21.10;72.50;;;;;;5015006;28;20500;-93
2021/08/23 08:36:59;;;;;;;16.90;6.60;;;20.90;72.60;;;;;;5006854;28;20475;-93
2021/08/23 08:39:25;;;;;;;8.40;5.53;;;21.00;72.20;;;;;;5005534;28;20422;-93
2021/08/23 08:41:51;;;;;;;8.93;5.40;;;21.30;71.70;;;;;;5002720;28;20460;-94
2021/08/23 08:44:19;;;;;;;8.33;5.73;;;21.20;71.20;;;;;;5004416;28;20425;-93
2021/08/23 08:46:48;;;;;;;9.13;5.67;;;21.30;70.80;;;;;;5018605;28;20429;-92
2021/08/23 08:49:17;;;;;;;7.77;5.60;;;21.30;71.10;;;;;;5037411;28;20421;-91
2021/08/23 08:51:48;;;;;;;7.03;5.30;;;21.10;71.20;;;;;;5020965;28;20465;-92
2021/08/23 08:54:16;;;;;;;9.25;6.32;;;20.80;71.40;;;;;;5024077;28;20405;-93
2021/08/23 08:56:45;;;;;;;11.13;5.50;;;20.70;72.10;;;;;;4999862;28;20543;-93
2021/08/23 08:59:12;;;;;;;11.33;5.37;;;20.90;72.40;;;;;;5010559;28;20282;-92
2021/08/23 09:01:38;;;;;;;6.40;5.40;;;21.00;71.90;;;;;;5012066;28;20456;-92
2021/08/23 09:04:06;;;;;;;8.75;5.10;;;21.10;70.60;;;;;;5021273;28;20455;-92
2021/08/23 09:06:39;;;;;;;5.73;4.60;;;21.20;70.20;;;;;;5015232;28;20178;-92
2021/08/23 09:09:13;;;;;;;5.93;4.30;;;21.20;69.90;;;;;;5003899;28;20424;-93
2021/08/23 09:11:42;;;;;;;6.85;4.88;;;21.20;70.20;;;;;;5007023;28;20308;-92
2021/08/23 09:14:09;;;;;;;7.78;4.93;;;21.10;70.10;;;;;;5011839;28;20178;-93
2021/08/23 09:16:40;;;;;;;8.68;5.00;;;21.00;69.90;;;;;;5012293;28;20167;-93
2021/08/23 09:19:07;;;;;;;9.38;4.82;;;21.00;70.50;;;;;;5007803;28;20538;-91
2021/08/23 09:21:40;;;;;;;4.70;4.05;;;20.90;71.10;;;;;;5004979;28;20185;-92
2021/08/23 09:24:16;;;;;;;8.10;4.30;;;20.80;71.30;;;;;;5003071;28;20237;-93
2021/08/23 09:26:45;;;;;;;6.55;3.88;;;20.80;71.30;;;;;;5002525;28;20174;-93
2021/08/23 09:29:37;;;;;;;6.85;4.47;;;20.70;72.00;;;;;;5006133;28;20193;-93
2021/08/23 09:32:08;;;;;;;8.00;4.47;;;20.70;71.90;;;;;;4967060;28;20290;-93
2021/08/23 09:34:44;;;;;;;9.63;4.77;;;20.90;71.10;;;;;;4961323;28;20877;-92
2021/08/23 09:37:16;;;;;;;6.60;4.80;;;20.80;71.70;;;;;;4962345;28;20431;-93
2021/08/23 09:39:41;;;;;;;6.37;4.00;;;21.00;70.60;;;;;;4961508;28;20756;-93
2021/08/23 09:42:10;;;;;;;6.47;4.37;;;20.90;71.00;;;;;;4962905;28;20959;-93
2021/08/23 09:44:38;;;;;;;10.63;4.27;;;20.80;70.30;;;;;;4965060;28;20420;-92
2021/08/23 09:47:04;;;;;;;6.22;3.75;;;20.90;70.40;;;;;;4952815;28;20998;-92
2021/08/23 09:49:44;;;;;;;5.77;3.87;;;20.70;70.40;;;;;;4960644;28;20546;-93
2021/08/23 09:53:10;;;;;;;;;;;;;;;;;;;;;
2021/08/23 09:55:30;;;;;;;5.20;4.00;;;20.70;70.80;;;;;;4966113;28;20406;-93
2021/08/23 10:01:49;;;;;;;8.03;3.80;;;21.30;69.30;;;;;;4962037;28;20435;-92
2021/08/23 10:04:17;;;;;;;7.87;4.10;;;21.30;69.10;;;;;;5019398;28;20421;-90
2021/08/23 10:06:48;;;;;;;12.27;5.03;;;21.30;68.40;;;;;;5012623;28;20417;-91
2021/08/23 10:09:24;;;;;;;8.47;4.10;;;21.20;68.20;;;;;;4998175;28;20409;-91
2021/08/23 10:11:56;;;;;;;7.63;3.30;;;21.50;68.60;;;;;;4998618;28;20468;-91
2021/08/23 10:14:22;;;;;;;5.97;3.50;;;21.50;67.70;;;;;;4998554;28;20456;-91
2021/08/23 10:16:50;;;;;;;7.10;3.40;;;21.60;67.40;;;;;;4998121;28;20456;-91
2021/08/23 10:19:23;;;;;;;5.23;3.37;;;21.80;67.00;;;;;;5015161;28;20460;-90
2021/08/23 10:21:51;;;;;;;4.37;2.93;;;22.00;67.20;;;;;;4997964;28;20752;-91
2021/08/23 10:24:23;;;;;;;4.97;3.83;;;22.10;65.60;;;;;;4997764;28;20433;-90
2021/08/23 10:26:53;;;;;;;6.30;3.53;;;22.20;64.40;;;;;;4997857;28;20417;-90
2021/08/23 10:29:19;;;;;;;4.90;3.70;;;22.10;63.60;;;;;;4998076;28;20504;-91
2021/08/23 10:31:47;;;;;;;5.53;3.20;;;21.90;64.20;;;;;;4996965;28;20465;-91
2021/08/23 10:34:18;;;;;;;4.80;3.27;;;21.90;64.10;;;;;;4998063;28;20501;-91
2021/08/23 10:36:46;;;;;;;4.80;3.37;;;22.00;63.30;;;;;;4998154;28;20468;-91
2021/08/23 10:39:24;;;;;;;3.47;3.17;;;22.10;64.10;;;;;;4998389;28;20946;-91
2021/08/23 10:41:52;;;;;;;8.10;3.50;;;22.00;63.00;;;;;;4998478;28;20428;-91
2021/08/23 10:44:30;;;;;;;4.80;3.17;;;22.10;63.40;;;;;;5001144;28;20908;-91
2021/08/23 10:47:08;;;;;;;6.10;2.97;;;22.20;63.10;;;;;;4999244;28;20533;-91
2021/08/23 10:49:50;;;;;;;6.23;2.70;;;22.20;62.50;;;;;;5017167;28;20481;-91
2021/08/23 10:52:17;;;;;;;3.03;2.73;;;22.20;62.00;;;;;;5017059;28;20994;-91
2021/08/23 10:54:49;;;;;;;7.70;2.90;;;22.10;61.50;;;;;;5018100;28;20412;-90
2021/08/23 10:57:22;;;;;;;6.60;3.40;;;22.10;61.80;;;;;;5017861;28;20428;-91
2021/08/23 10:59:50;;;;;;;4.90;2.50;;;22.10;61.60;;;;;;5017956;28;20421;-91
2021/08/23 11:02:33;;;;;;;6.07;3.37;;;22.00;61.40;;;;;;5017502;28;20758;-92
2021/08/23 11:05:07;;;;;;;4.63;3.33;;;21.90;61.50;;;;;;5035303;28;20499;-91
2021/08/23 11:07:35;;;;;;;6.17;2.70;;;22.00;61.40;;;;;;5017665;28;20482;-92
2021/08/23 11:10:07;;;;;;;7.03;3.43;;;22.20;61.60;;;;;;5015493;28;20456;-90
2021/08/23 11:12:47;;;;;;;7.67;2.67;;;22.20;61.50;;;;;;4999269;28;20991;-91
2021/08/23 11:15:27;;;;;;;5.20;3.40;;;22.40;61.20;;;;;;4999968;28;20424;-90
2021/08/23 11:18:04;;;;;;;4.77;3.53;;;22.50;60.60;;;;;;5013344;28;20507;-89
2021/08/23 11:20:32;;;;;;;3.97;2.43;;;22.80;60.00;;;;;;5023827;28;20420;-91
2021/08/23 11:23:01;;;;;;;4.30;2.70;;;22.90;60.50;;;;;;5027934;28;20871;-91
2021/08/23 11:25:35;;;;;;;4.90;3.07;;;22.80;59.80;;;;;;5029618;28;20424;-92
2021/08/23 11:28:03;;;;;;;4.63;3.17;;;22.80;59.40;;;;;;5031049;28;20404;-93
2021/08/23 11:30:38;;;;;;;8.43;3.10;;;23.00;59.10;;;;;;5029789;28;20416;-92
2021/08/23 11:33:07;;;;;;;3.63;3.27;;;23.00;58.70;;;;;;5034310;28;20467;-91
2021/08/23 11:35:35;;;;;;;2.70;2.50;;;23.20;58.20;;;;;;5000551;28;20421;-92
2021/08/23 11:38:06;;;;;;;11.60;3.40;;;23.30;58.80;;;;;;5018290;28;20508;-92
2021/08/23 11:40:34;;;;;;;3.93;2.80;;;23.00;58.00;;;;;;5000117;28;20508;-91
2021/08/23 11:43:10;;;;;;;4.57;2.80;;;22.90;57.90;;;;;;5005826;28;20548;-91
2021/08/23 11:45:46;;;;;;;5.63;2.90;;;22.80;58.60;;;;;;5023146;28;20504;-91
2021/08/23 11:48:16;;;;;;;4.03;3.03;;;22.90;58.70;;;;;;5022445;28;20468;-92
2021/08/23 11:50:56;;;;;;;4.20;3.00;;;23.10;58.40;;;;;;5020117;28;20428;-91
2021/08/23 11:53:24;;;;;;;3.93;2.47;;;23.20;57.10;;;;;;5019113;28;20479;-91
2021/08/23 11:55:50;;;;;;;6.23;2.80;;;23.40;56.60;;;;;;5020988;28;20428;-91
2021/08/23 11:58:21;;;;;;;5.30;3.07;;;23.30;56.50;;;;;;5020424;28;20421;-92
2021/08/23 12:01:04;;;;;;;4.10;3.03;;;23.20;57.20;;;;;;5018843;28;20478;-91
2021/08/23 12:03:31;;;;;;;3.90;3.60;;;23.00;57.70;;;;;;5018881;28;20447;-91
2021/08/23 12:06:12;;;;;;;8.43;3.90;;;23.00;58.00;;;;;;5003191;28;20476;-91
2021/08/23 12:08:40;;;;;;;4.00;3.60;;;23.00;58.60;;;;;;5021590;28;20414;-91
2021/08/23 12:11:11;;;;;;;4.70;3.30;;;22.90;58.00;;;;;;5020361;28;20481;-91
2021/08/23 12:13:46;;;;;;;5.90;3.07;;;23.20;57.90;;;;;;5000587;28;20449;-91
2021/08/23 12:16:14;;;;;;;5.70;3.30;;;23.50;57.50;;;;;;4999675;28;20426;-91
2021/08/23 12:18:46;;;;;;;4.40;3.27;;;23.30;56.50;;;;;;5017175;28;20417;-92
2021/08/23 12:21:21;;;;;;;5.77;2.50;;;23.40;57.60;;;;;;4999665;28;20475;-92
2021/08/23 12:23:46;;;;;;;7.13;2.30;;;23.40;57.10;;;;;;5000258;28;20445;-91
2021/08/23 12:26:42;;;;;;;6.43;3.20;;;23.30;57.70;;;;;;4999755;28;20432;-93
2021/08/23 12:29:24;;;;;;;6.33;3.50;;;23.50;57.80;;;;;;4967250;28;20190;-91
2021/08/23 12:32:07;;;;;;;5.47;3.43;;;23.40;57.90;;;;;;5020575;28;20465;-90
2021/08/23 12:34:43;;;;;;;5.70;2.90;;;23.50;56.60;;;;;;5017505;28;20442;-93
2021/08/23 12:37:10;;;;;;;3.13;2.53;;;23.70;57.50;;;;;;5001126;28;20419;-92
2021/08/23 12:39:37;;;;;;;3.53;3.23;;;23.50;58.30;;;;;;5001284;28;20442;-93
2021/08/23 12:42:08;;;;;;;4.43;3.17;;;23.40;57.30;;;;;;5000965;28;20490;-93
2021/08/23 12:44:35;;;;;;;5.63;3.73;;;23.60;57.90;;;;;;5001003;28;20446;-91
2021/08/23 12:47:01;;;;;;;5.93;3.50;;;23.80;56.70;;;;;;5000868;28;20505;-93
2021/08/23 12:49:27;;;;;;;4.37;3.57;;;23.90;56.50;;;;;;5001051;28;20452;-94
2021/08/23 12:51:53;;;;;;;5.43;3.70;;;24.00;55.90;;;;;;5000721;28;20466;-91
2021/08/23 12:54:23;;;;;;;6.03;3.20;;;23.90;55.70;;;;;;5000860;28;20436;-90
2021/08/23 12:56:51;;;;;;;6.63;3.80;;;24.10;56.40;;;;;;5000977;28;20430;-93
2021/08/23 12:59:17;;;;;;;4.93;3.30;;;24.20;55.90;;;;;;5000870;28;20438;-92
2021/08/23 13:01:44;;;;;;;6.80;3.67;;;23.90;55.50;;;;;;5000868;28;20411;-93